createdAt,value
2018-04-14T08:57:40.468Z,14.90
2018-04-14T09:00:07.982Z,15.10
2018-04-14T09:02:35.497Z,15.00
2018-04-14T09:05:04.202Z,15.40
2018-04-14T09:07:32.270Z,15.40
2018-04-14T09:10:00.149Z,15.40
2018-04-14T09:12:27.715Z,15.60
2018-04-14T09:14:55.224Z,15.90
2018-04-14T09:17:22.740Z,16.10
2018-04-14T09:19:50.239Z,16.30
2018-04-14T09:22:17.794Z,16.20
2018-04-14T09:24:45.281Z,16.10
2018-04-14T09:27:13.288Z,16.10
2018-04-14T09:29:40.789Z,16.20
2018-04-14T09:32:08.311Z,16.50
2018-04-14T09:34:36.425Z,16.80
2018-04-14T09:37:04.213Z,16.90
2018-04-14T09:39:32.560Z,16.90
2018-04-14T09:42:00.085Z,16.80
2018-04-14T09:44:28.208Z,16.80
2018-04-14T09:46:56.335Z,16.80
2018-04-14T09:49:24.702Z,16.90
2018-04-14T09:51:52.787Z,17.10
2018-04-14T09:54:20.308Z,17.40
2018-04-14T09:56:48.668Z,17.10
2018-04-14T09:59:16.984Z,17.10
2018-04-14T10:01:51.214Z,17.50
2018-04-14T10:04:18.712Z,17.40
2018-04-14T10:06:47.733Z,17.60
2018-04-14T10:09:15.244Z,17.80
2018-04-14T10:11:43.370Z,18.00
2018-04-14T10:14:12.068Z,18.20
2018-04-14T10:16:39.580Z,18.20
2018-04-14T10:19:07.117Z,18.10
2018-04-14T10:21:35.417Z,18.00
2018-04-14T10:24:02.936Z,18.20
2018-04-14T10:26:30.431Z,18.50
2018-04-14T10:28:57.945Z,18.40
2018-04-14T10:31:25.447Z,18.40
2018-04-14T10:33:52.968Z,18.40
2018-04-14T10:36:20.470Z,18.50
2018-04-14T10:38:48.015Z,18.80
2018-04-14T10:41:15.511Z,18.90
2018-04-14T10:43:43.788Z,19.20
2018-04-14T10:46:11.280Z,19.20
2018-04-14T10:48:42.349Z,19.20
2018-04-14T10:51:10.324Z,19.20
2018-04-14T10:53:38.959Z,19.40
2018-04-14T10:56:06.458Z,19.80
2018-04-14T10:58:35.099Z,20.10
2018-04-14T11:01:04.119Z,19.90
2018-04-14T11:03:31.703Z,19.80
2018-04-14T11:05:59.551Z,19.70
2018-04-14T11:08:27.093Z,20.00
2018-04-14T11:10:55.369Z,20.00
2018-04-14T11:13:22.886Z,20.00
2018-04-14T11:15:50.939Z,20.20
2018-04-14T11:18:18.516Z,20.30
2018-04-14T11:20:46.032Z,20.50
2018-04-14T11:23:14.317Z,21.10
2018-04-14T11:25:42.867Z,21.10
2018-04-14T11:28:10.383Z,21.60
2018-04-14T11:30:37.890Z,21.90
2018-04-14T11:33:05.413Z,21.90
2018-04-14T11:35:32.963Z,21.70
2018-04-14T11:38:02.227Z,21.60
2018-04-14T11:40:30.515Z,22.20
2018-04-14T11:42:58.776Z,22.30
2018-04-14T11:45:27.056Z,22.30
2018-04-14T11:47:55.323Z,22.30
2018-04-14T11:50:22.864Z,22.30
2018-04-14T11:52:50.386Z,22.50
2018-04-14T11:55:17.930Z,22.70
2018-04-14T11:57:45.704Z,23.00
2018-04-14T12:00:13.828Z,23.30
2018-04-14T12:02:41.341Z,23.40
2018-04-14T12:05:10.727Z,23.00
2018-04-14T12:07:38.264Z,22.90
2018-04-14T12:10:05.759Z,23.30
2018-04-14T12:12:34.176Z,23.40
2018-04-14T12:15:01.695Z,23.70
2018-04-14T12:17:30.141Z,24.10
2018-04-14T12:19:57.663Z,24.40
2018-04-14T12:22:25.162Z,24.50
2018-04-14T12:24:53.594Z,24.60
2018-04-14T12:27:21.099Z,24.80
2018-04-14T12:29:48.609Z,24.90
2018-04-14T12:32:16.122Z,25.00
2018-04-14T12:34:44.097Z,25.00
2018-04-14T12:37:11.604Z,24.80
2018-04-14T12:39:39.141Z,24.80
2018-04-14T12:42:06.659Z,24.90
2018-04-14T12:44:34.196Z,24.70
2018-04-14T12:47:03.320Z,24.40
2018-04-14T12:49:31.190Z,24.40
2018-04-14T12:51:59.145Z,24.20
2018-04-14T12:54:27.106Z,24.50
2018-04-14T12:56:55.846Z,25.10
2018-04-14T12:59:24.154Z,26.20
2018-04-14T13:01:51.688Z,26.20
2018-04-14T13:04:19.220Z,26.30
2018-04-14T13:06:46.731Z,26.20
2018-04-14T13:09:17.476Z,25.90
2018-04-14T13:11:44.987Z,26.00
2018-04-14T13:14:12.480Z,25.70
2018-04-14T13:16:39.993Z,25.40
2018-04-14T13:19:08.125Z,25.50
2018-04-14T13:21:35.669Z,25.70
2018-04-14T13:24:03.784Z,26.30
2018-04-14T13:26:31.313Z,26.60
2018-04-14T13:28:59.283Z,27.00
2018-04-14T13:31:26.795Z,27.40
2018-04-14T13:33:54.292Z,27.70
2018-04-14T13:36:22.572Z,28.30
2018-04-14T13:38:50.589Z,28.30
2018-04-14T13:41:18.110Z,28.70
2018-04-14T13:43:45.635Z,28.80
2018-04-14T13:46:15.135Z,28.50
2018-04-14T13:48:42.654Z,28.40
2018-04-14T13:51:10.169Z,28.30
2018-04-14T13:53:38.425Z,28.10
2018-04-14T13:56:05.930Z,28.10
2018-04-14T13:58:33.457Z,27.80
2018-04-14T14:01:01.729Z,26.70
2018-04-14T14:03:31.522Z,26.60
2018-04-14T14:05:59.817Z,26.50
2018-04-14T14:08:28.189Z,26.70
2018-04-14T14:10:55.737Z,27.30
2018-04-14T14:13:23.612Z,27.80
2018-04-14T14:15:52.054Z,28.20
2018-04-14T14:18:19.717Z,28.10
2018-04-14T14:20:47.231Z,28.40
2018-04-14T14:23:16.451Z,28.60
2018-04-14T14:25:44.028Z,28.50
2018-04-14T14:28:12.233Z,28.60
2018-04-14T14:30:40.494Z,28.70
2018-04-14T14:33:11.377Z,28.80
2018-04-14T14:35:38.882Z,28.50
2018-04-14T14:38:06.433Z,28.30
2018-04-14T14:40:33.936Z,28.10
2018-04-14T14:43:01.518Z,27.90
2018-04-14T14:45:30.666Z,28.10
2018-04-14T14:47:59.147Z,28.50
2018-04-14T14:50:28.562Z,28.70
2018-04-14T14:52:56.080Z,29.30
2018-04-14T14:55:25.460Z,29.90
2018-04-14T14:57:52.970Z,29.80
2018-04-14T15:00:20.468Z,29.70
2018-04-14T15:02:48.212Z,29.70
2018-04-14T15:05:17.124Z,29.30
2018-04-14T15:07:44.648Z,28.50
2018-04-14T15:10:12.216Z,28.10
2018-04-14T15:12:40.138Z,28.20
2018-04-14T15:15:07.651Z,28.50
2018-04-14T15:17:35.891Z,29.20
2018-04-14T15:20:03.407Z,29.50
2018-04-14T15:22:31.708Z,29.60
2018-04-14T15:25:00.861Z,29.30
2018-04-14T15:27:28.360Z,29.30
2018-04-14T15:29:58.522Z,29.20
2018-04-14T15:32:27.510Z,28.70
2018-04-14T15:34:56.213Z,28.20
2018-04-14T15:37:24.368Z,27.70
2018-04-14T15:39:51.901Z,27.40
2018-04-14T15:42:19.998Z,27.50
2018-04-14T15:44:48.116Z,28.00
2018-04-14T15:47:16.392Z,27.80
2018-04-14T15:49:44.276Z,27.80
2018-04-14T15:52:12.700Z,27.80
2018-04-14T15:54:40.912Z,27.80
2018-04-14T15:57:08.404Z,27.90
2018-04-14T15:59:37.396Z,27.90
2018-04-14T16:02:05.576Z,27.70
2018-04-14T16:04:33.097Z,27.60
2018-04-14T16:07:00.617Z,27.80
2018-04-14T16:09:28.121Z,27.60
2018-04-14T16:11:57.055Z,27.30
2018-04-14T16:14:24.572Z,26.90
2018-04-14T16:16:52.076Z,25.90
2018-04-14T16:19:20.358Z,25.50
2018-04-14T16:21:47.847Z,25.50
2018-04-14T16:24:15.364Z,25.60
2018-04-14T16:26:44.205Z,25.40
2018-04-14T16:29:13.241Z,25.20
2018-04-14T16:31:41.588Z,25.00
2018-04-14T16:34:09.084Z,24.90
2018-04-14T16:36:36.614Z,24.80
2018-04-14T16:39:04.124Z,24.70
2018-04-14T16:41:31.645Z,24.50
2018-04-14T16:43:59.191Z,24.20
2018-04-14T16:46:26.706Z,23.90
2018-04-14T16:48:55.028Z,23.50
2018-04-14T16:51:22.516Z,23.50
2018-04-14T16:53:51.644Z,23.50
2018-04-14T16:56:20.824Z,23.40
2018-04-14T16:58:48.336Z,23.40
2018-04-14T17:01:15.908Z,23.40
2018-04-14T17:03:43.888Z,23.30
2018-04-14T17:06:11.402Z,23.20
2018-04-14T17:08:38.901Z,23.00
2018-04-14T17:11:06.448Z,22.90
2018-04-14T17:13:33.956Z,22.80
2018-04-14T17:16:01.471Z,22.70
2018-04-14T17:18:30.352Z,22.70
2018-04-14T17:20:57.884Z,22.60
2018-04-14T17:23:26.139Z,22.70
2018-04-14T17:25:53.664Z,22.70
2018-04-14T17:28:21.224Z,22.70
2018-04-14T17:30:48.748Z,22.70
2018-04-14T17:33:18.083Z,22.90
2018-04-14T17:35:46.072Z,22.90
2018-04-14T17:38:15.390Z,22.90
2018-04-14T17:40:43.344Z,22.80
2018-04-14T17:43:10.839Z,22.80
2018-04-14T17:45:38.399Z,22.70
2018-04-14T17:48:06.633Z,22.70
2018-04-14T17:50:35.641Z,22.60
2018-04-14T17:53:03.181Z,22.50
2018-04-14T17:55:30.677Z,22.40
2018-04-14T17:57:58.200Z,22.30
2018-04-14T18:00:26.393Z,22.10
2018-04-14T18:02:53.931Z,21.90
2018-04-14T18:05:21.469Z,21.80
2018-04-14T18:07:48.998Z,21.60
2018-04-14T18:10:17.925Z,21.40
2018-04-14T18:12:45.453Z,21.20
2018-04-14T18:15:12.971Z,21.10
2018-04-14T18:17:42.848Z,21.00
2018-04-14T18:20:11.186Z,20.90
2018-04-14T18:22:39.881Z,20.80
2018-04-14T18:25:07.398Z,20.50
2018-04-14T18:27:34.925Z,20.50
2018-04-14T18:30:03.334Z,20.40
2018-04-14T18:32:30.859Z,20.30
2018-04-14T18:34:58.357Z,20.10
2018-04-14T18:37:25.893Z,19.90
2018-04-14T18:39:53.527Z,19.80
2018-04-14T18:42:21.956Z,19.70
2018-04-14T18:44:50.113Z,19.70
2018-04-14T18:47:18.200Z,19.50
2018-04-14T18:49:45.714Z,19.30
2018-04-14T18:52:14.011Z,19.00
2018-04-14T18:54:42.420Z,18.90
2018-04-14T18:57:10.768Z,18.90
2018-04-14T18:59:39.177Z,18.90
2018-04-14T19:02:07.483Z,18.80
2018-04-14T19:04:35.011Z,18.80
2018-04-14T19:07:02.524Z,18.70
2018-04-14T19:09:30.165Z,18.60
2018-04-14T19:11:57.895Z,18.40
2018-04-14T19:14:25.415Z,18.30
2018-04-14T19:16:54.555Z,18.10
2018-04-14T19:19:22.281Z,18.10
2018-04-14T19:21:50.576Z,18.00
2018-04-14T19:24:18.861Z,17.80
2018-04-14T19:26:46.607Z,17.80
2018-04-14T19:29:14.121Z,17.70
2018-04-14T19:31:41.614Z,17.70
2018-04-14T19:34:09.125Z,17.60
2018-04-14T19:36:38.824Z,17.50
2018-04-14T19:39:06.379Z,17.40
2018-04-14T19:41:35.572Z,17.20
2018-04-14T19:44:03.088Z,17.20
2018-04-14T19:46:30.580Z,17.10
2018-04-14T19:48:58.894Z,16.90
2018-04-14T19:51:26.391Z,16.90
2018-04-14T19:53:53.904Z,16.90
2018-04-14T19:56:22.368Z,16.90
2018-04-14T19:58:49.915Z,16.90
2018-04-14T20:01:18.200Z,16.80
2018-04-14T20:03:47.062Z,16.80
2018-04-14T20:06:15.823Z,16.90
2018-04-14T20:08:44.327Z,16.80
2018-04-14T20:11:11.867Z,16.70
2018-04-14T20:13:39.384Z,16.60
2018-04-14T20:16:06.892Z,16.50
2018-04-14T20:18:34.400Z,16.40
2018-04-14T20:21:02.922Z,16.40
2018-04-14T20:23:30.416Z,16.40
2018-04-14T20:25:58.794Z,16.30
2018-04-14T20:28:26.285Z,16.30
2018-04-14T20:30:53.809Z,16.40
2018-04-14T20:33:21.310Z,16.30
2018-04-14T20:35:48.849Z,16.20
2018-04-14T20:38:17.121Z,16.20
2018-04-14T20:40:45.420Z,17.80
2018-04-14T20:43:12.924Z,16.10
2018-04-14T20:45:41.332Z,16.10
2018-04-14T20:48:09.603Z,16.00
2018-04-14T20:50:37.161Z,16.00
2018-04-14T20:53:05.552Z,15.90
2018-04-14T20:55:33.075Z,15.90
2018-04-14T20:58:00.568Z,15.80
2018-04-14T21:00:28.101Z,15.70
2018-04-14T21:02:56.342Z,15.70
2018-04-14T21:05:23.863Z,15.70
2018-04-14T21:07:51.672Z,15.60
2018-04-14T21:10:19.180Z,15.60
2018-04-14T21:12:46.673Z,15.60
2018-04-14T21:15:15.141Z,15.50
2018-04-14T21:17:42.636Z,15.40
2018-04-14T21:20:11.281Z,15.40
2018-04-14T21:22:39.697Z,15.40
2018-04-14T21:25:08.192Z,15.30
2018-04-14T21:27:36.589Z,15.20
2018-04-14T21:30:05.659Z,15.10
2018-04-14T21:32:33.173Z,15.00
2018-04-14T21:35:01.706Z,15.00
2018-04-14T21:37:29.480Z,15.00
2018-04-14T21:39:57.958Z,15.00
2018-04-14T21:42:25.456Z,14.90
2018-04-14T21:44:52.965Z,14.90
2018-04-14T21:47:21.290Z,14.70
2018-04-14T21:49:48.788Z,14.70
2018-04-14T21:52:16.311Z,14.60
2018-04-14T21:54:43.832Z,14.50
2018-04-14T21:57:11.351Z,14.60
2018-04-14T21:59:38.856Z,14.50
2018-04-14T22:02:06.363Z,14.50
2018-04-14T22:04:33.873Z,14.50
2018-04-14T22:07:01.387Z,14.50
2018-04-14T22:09:30.258Z,14.40
2018-04-14T22:11:57.788Z,14.40
2018-04-14T22:14:33.209Z,14.40
2018-04-14T22:17:00.731Z,14.30
2018-04-14T22:19:28.236Z,14.30
2018-04-14T22:21:55.758Z,14.20
2018-04-14T22:24:23.259Z,14.10
2018-04-14T22:26:51.688Z,14.10
2018-04-14T22:29:19.192Z,14.10
2018-04-14T22:31:46.717Z,14.10
2018-04-14T22:34:14.327Z,14.00
2018-04-14T22:36:41.856Z,13.90
2018-04-14T22:39:09.375Z,13.90
2018-04-14T22:41:36.901Z,13.90
2018-04-14T22:44:04.403Z,13.80
2018-04-14T22:46:31.932Z,13.80
2018-04-14T22:48:59.442Z,13.70
